Time;durP1;ratioP1;P1;durP2;ratioP2;P2;SDS_P1;SDS_P2;PMS_P1;PMS_P2;Temp;Humidity;BMP_temperature;BMP_pressure;BME280_temperature;BME280_humidity;BME280_pressure;Samples;Min_cycle;Max_cycle;Signal;HPM_P1;HPM_P2
2024/01/10 00:01:12;;;;;;;7.13;4.90;;;-2.20;68.90;;;;;;5024192;28;20219;-77
2024/01/10 00:03:39;;;;;;;8.07;5.07;;;-2.10;68.40;;;;;;5027008;28;20557;-77
2024/01/10 00:06:08;;;;;;;7.80;5.20;;;-2.10;71.60;;;;;;5019084;28;20206;-77
2024/01/10 00:08:35;;;;;;;7.70;4.97;;;-2.00;69.10;;;;;;5019853;28;20226;-75
2024/01/10 00:11:03;;;;;;;8.07;4.63;;;-2.10;67.00;;;;;;5016887;28;20207;-77
2024/01/10 00:13:32;;;;;;;6.90;5.10;;;-2.10;68.20;;;;;;5020089;28;20216;-78
2024/01/10 00:15:59;;;;;;;6.93;4.83;;;-2.20;68.40;;;;;;5019567;28;20606;-76
2024/01/10 00:18:27;;;;;;;8.13;5.23;;;-2.40;68.30;;;;;;5019858;28;20223;-77
2024/01/10 00:20:54;;;;;;;7.20;5.13;;;-2.40;67.90;;;;;;5014165;28;20220;-78
2024/01/10 00:23:23;;;;;;;9.73;5.90;;;-2.30;68.60;;;;;;5010898;28;20200;-77
2024/01/10 00:25:51;;;;;;;6.93;4.80;;;-2.50;69.60;;;;;;5020031;28;20199;-77
2024/01/10 00:28:18;;;;;;;8.80;5.53;;;-2.40;69.10;;;;;;5017998;28;20223;-77
2024/01/10 00:30:47;;;;;;;9.47;5.60;;;-2.50;70.10;;;;;;5014413;28;20204;-77
2024/01/10 00:33:15;;;;;;;7.03;4.87;;;-2.60;68.90;;;;;;5015203;28;20203;-77
2024/01/10 00:35:42;;;;;;;6.73;4.80;;;-2.60;70.60;;;;;;5018706;28;20209;-77
2024/01/10 00:38:10;;;;;;;7.37;5.10;;;-2.60;68.60;;;;;;5018570;28;20239;-77
2024/01/10 00:40:39;;;;;;;8.50;5.57;;;-2.70;68.60;;;;;;5018001;28;20207;-77
2024/01/10 00:43:06;;;;;;;11.07;5.77;;;-2.70;70.30;;;;;;5032763;28;20267;-77
2024/01/10 00:45:33;;;;;;;7.13;5.07;;;-2.70;69.80;;;;;;5040194;28;20211;-77
2024/01/10 00:48:01;;;;;;;7.83;5.43;;;-2.60;72.20;;;;;;5032241;28;20195;-77
2024/01/10 00:50:28;;;;;;;8.40;5.73;;;-2.40;72.30;;;;;;5030196;28;20199;-75
2024/01/10 00:52:55;;;;;;;11.20;5.67;;;-2.30;73.30;;;;;;5023984;28;20200;-77
2024/01/10 00:55:23;;;;;;;11.27;5.67;;;-2.40;71.20;;;;;;5042091;28;20549;-77
2024/01/10 00:57:52;;;;;;;10.03;5.70;;;-2.30;72.50;;;;;;5013820;28;20196;-77
2024/01/10 01:00:19;;;;;;;8.70;6.23;;;-2.40;70.40;;;;;;4999617;28;20215;-78
2024/01/10 01:02:46;;;;;;;8.27;5.73;;;-2.50;70.40;;;;;;5019016;28;20676;-77
2024/01/10 01:05:14;;;;;;;9.17;5.47;;;-2.40;70.70;;;;;;5036937;28;20200;-77
2024/01/10 01:07:41;;;;;;;8.17;5.30;;;-2.60;71.00;;;;;;5036190;28;20203;-77
2024/01/10 01:10:09;;;;;;;7.73;5.03;;;-2.60;70.20;;;;;;5018453;28;20226;-77
2024/01/10 01:12:37;;;;;;;9.67;5.80;;;-2.40;71.40;;;;;;5028291;28;20199;-77
2024/01/10 01:15:07;;;;;;;11.33;6.17;;;-2.60;72.50;;;;;;5018449;28;20206;-77
2024/01/10 01:17:35;;;;;;;8.10;5.63;;;-2.60;70.90;;;;;;5009230;28;20217;-77
2024/01/10 01:20:04;;;;;;;9.00;6.00;;;-2.70;70.30;;;;;;5014389;28;20314;-77
2024/01/10 01:22:32;;;;;;;9.93;5.73;;;-2.80;70.90;;;;;;5034482;28;20204;-77
2024/01/10 01:24:59;;;;;;;8.60;6.17;;;-2.60;71.40;;;;;;5014984;28;20196;-77
2024/01/10 01:27:26;;;;;;;8.63;5.83;;;-2.60;71.60;;;;;;5001858;28;20208;-77
2024/01/10 01:29:54;;;;;;;10.67;6.03;;;-2.60;72.40;;;;;;5020747;28;20238;-77
2024/01/10 01:32:22;;;;;;;7.90;5.13;;;-2.60;71.00;;;;;;5016546;28;20208;-77
2024/01/10 01:34:50;;;;;;;9.03;5.90;;;-2.50;71.70;;;;;;5018811;28;20203;-77
2024/01/10 01:37:17;;;;;;;9.03;5.37;;;-2.30;73.40;;;;;;5007378;28;20207;-77
2024/01/10 01:39:45;;;;;;;8.07;5.33;;;-2.30;74.10;;;;;;5025435;28;20234;-80
2024/01/10 01:42:12;;;;;;;9.70;6.13;;;-2.10;75.20;;;;;;5011852;28;20219;-78
2024/01/10 01:44:40;;;;;;;10.03;6.40;;;-2.10;76.40;;;;;;5018833;28;20202;-77
2024/01/10 01:47:07;;;;;;;11.37;5.80;;;-2.10;76.10;;;;;;5018625;28;20215;-77
2024/01/10 01:49:37;;;;;;;8.90;5.97;;;-2.40;73.40;;;;;;5018453;28;20219;-77
2024/01/10 01:52:05;;;;;;;8.00;5.63;;;-2.40;74.90;;;;;;5030913;28;20200;-78
2024/01/10 01:54:34;;;;;;;8.30;6.13;;;-2.20;78.50;;;;;;5002683;28;20207;-78
2024/01/10 01:57:01;;;;;;;9.67;5.63;;;-2.10;79.70;;;;;;5036395;28;20206;-78
2024/01/10 01:59:29;;;;;;;8.67;6.57;;;-2.20;77.90;;;;;;5018297;28;20215;-77
2024/01/10 02:01:57;;;;;;;6.80;5.60;;;-2.20;76.50;;;;;;5018248;28;20219;-77
2024/01/10 02:04:25;;;;;;;8.10;5.83;;;-2.40;76.50;;;;;;5034834;28;20196;-77
2024/01/10 02:06:53;;;;;;;10.13;6.67;;;-2.40;77.40;;;;;;5016722;28;20195;-77
2024/01/10 02:09:21;;;;;;;8.97;5.77;;;-2.80;75.40;;;;;;5018094;28;20702;-78
2024/01/10 02:11:49;;;;;;;8.90;6.27;;;-3.00;76.30;;;;;;5008335;28;20557;-78
2024/01/10 02:14:17;;;;;;;7.97;5.83;;;-3.00;77.30;;;;;;5017249;28;20211;-78
2024/01/10 02:16:45;;;;;;;8.53;6.07;;;-2.80;79.20;;;;;;5033329;28;20210;-77
2024/01/10 02:19:20;;;;;;;10.40;6.10;;;-2.80;78.40;;;;;;5034364;28;20216;-77
2024/01/10 02:21:47;;;;;;;8.13;5.80;;;-2.80;79.30;;;;;;5008431;28;20210;-76
2024/01/10 02:24:16;;;;;;;8.17;5.83;;;-3.00;78.90;;;;;;5008647;28;20209;-77
2024/01/10 02:26:45;;;;;;;8.23;6.40;;;-2.80;79.70;;;;;;5018869;28;20565;-77
2024/01/10 02:29:12;;;;;;;10.30;6.30;;;-3.10;78.50;;;;;;5010948;28;20236;-77
2024/01/10 02:31:39;;;;;;;8.97;5.83;;;-3.10;79.60;;;;;;5006222;28;20209;-77
2024/01/10 02:34:07;;;;;;;11.10;6.90;;;-3.30;80.00;;;;;;5011280;28;20199;-77
2024/01/10 02:36:34;;;;;;;9.93;6.67;;;-3.30;80.20;;;;;;5015815;28;20208;-77
2024/01/10 02:39:02;;;;;;;11.30;6.07;;;-3.30;80.20;;;;;;5033663;28;20226;-77
2024/01/10 02:41:29;;;;;;;9.07;5.93;;;-3.60;80.20;;;;;;5015486;28;20222;-77
2024/01/10 02:43:58;;;;;;;9.57;5.37;;;-3.60;81.90;;;;;;5007109;28;20759;-77
2024/01/10 02:46:27;;;;;;;11.37;6.57;;;-3.60;82.50;;;;;;5015294;28;20203;-77
2024/01/10 02:48:56;;;;;;;9.33;6.47;;;-3.60;82.50;;;;;;5015207;28;20229;-77
2024/01/10 02:51:23;;;;;;;9.30;6.30;;;-3.60;82.80;;;;;;5007644;28;20203;-78
2024/01/10 02:53:50;;;;;;;9.47;6.07;;;-3.20;85.40;;;;;;5012482;28;20695;-77
2024/01/10 02:56:18;;;;;;;9.67;6.03;;;-3.00;85.10;;;;;;5015729;28;20195;-77
2024/01/10 02:58:45;;;;;;;10.17;6.37;;;-3.10;83.60;;;;;;5005429;28;20219;-78
2024/01/10 03:01:15;;;;;;;10.27;6.00;;;-3.10;84.70;;;;;;5015151;28;20219;-77
2024/01/10 03:03:42;;;;;;;10.00;6.17;;;-3.00;84.70;;;;;;5009326;28;20203;-77
2024/01/10 03:06:10;;;;;;;8.83;5.73;;;-3.00;84.10;;;;;;5010124;28;20210;-77
2024/01/10 03:08:37;;;;;;;9.80;6.33;;;-2.90;85.00;;;;;;5015233;28;20219;-78
2024/01/10 03:11:05;;;;;;;9.70;6.50;;;-3.00;83.20;;;;;;5015556;28;20207;-78
2024/01/10 03:13:32;;;;;;;9.20;6.73;;;-3.20;83.80;;;;;;5011673;28;20339;-78
2024/01/10 03:16:00;;;;;;;8.93;6.07;;;-3.30;84.40;;;;;;5016099;28;20547;-78
2024/01/10 03:18:29;;;;;;;11.07;7.20;;;-3.40;84.80;;;;;;5015823;28;20611;-78
2024/01/10 03:20:56;;;;;;;11.23;6.43;;;-3.40;84.90;;;;;;5015413;28;20205;-78
2024/01/10 03:23:24;;;;;;;9.33;6.90;;;-3.40;85.00;;;;;;5007228;28;20207;-78
2024/01/10 03:25:51;;;;;;;10.70;5.97;;;-3.20;87.00;;;;;;5011257;28;20192;-77
2024/01/10 03:28:19;;;;;;;11.03;6.43;;;-2.90;88.50;;;;;;4995892;28;20222;-78
2024/01/10 03:30:46;;;;;;;10.37;6.40;;;-3.00;87.30;;;;;;5017610;28;20206;-78
2024/01/10 03:33:15;;;;;;;11.90;6.97;;;-3.00;87.50;;;;;;5012864;28;20204;-77
2024/01/10 03:35:44;;;;;;;11.67;6.63;;;-3.40;85.30;;;;;;5010378;28;20206;-77
2024/01/10 03:38:11;;;;;;;10.60;7.00;;;-3.50;86.20;;;;;;5030504;28;20234;-78
2024/01/10 03:40:38;;;;;;;9.23;6.07;;;-3.40;88.10;;;;;;5013111;28;20210;-77
2024/01/10 03:43:06;;;;;;;8.50;6.67;;;-3.50;87.90;;;;;;4999972;28;20223;-78
2024/01/10 03:45:33;;;;;;;9.70;6.70;;;-3.40;87.90;;;;;;4999680;28;20206;-78
2024/01/10 03:48:00;;;;;;;12.67;6.83;;;-3.30;89.00;;;;;;5031691;28;20191;-78
2024/01/10 03:50:28;;;;;;;11.97;7.27;;;-3.20;90.40;;;;;;5015372;28;20199;-78
2024/01/10 03:52:56;;;;;;;8.90;5.87;;;-3.20;89.90;;;;;;5010926;28;20202;-78
2024/01/10 03:55:24;;;;;;;11.43;6.90;;;-3.40;88.30;;;;;;5019217;28;20200;-78
2024/01/10 03:57:52;;;;;;;9.83;6.10;;;-3.60;88.20;;;;;;5018940;28;20203;-78
2024/01/10 04:00:20;;;;;;;12.13;6.83;;;-3.80;89.80;;;;;;5015776;28;20205;-78
2024/01/10 04:02:47;;;;;;;8.53;6.57;;;-3.90;90.50;;;;;;5028186;28;20203;-78
2024/01/10 04:05:14;;;;;;;9.07;6.37;;;-3.80;90.40;;;;;;5019128;28;20199;-76
2024/01/10 04:07:43;;;;;;;9.77;6.40;;;-3.80;91.00;;;;;;5011896;28;20200;-77
2024/01/10 04:10:13;;;;;;;9.27;6.23;;;-3.80;91.60;;;;;;5018971;28;20565;-77
2024/01/10 04:12:41;;;;;;;9.43;6.50;;;-3.60;91.30;;;;;;5030327;28;20203;-77
2024/01/10 04:15:09;;;;;;;10.67;6.60;;;-3.90;91.70;;;;;;5023977;28;20564;-77
2024/01/10 04:17:37;;;;;;;9.97;6.23;;;-4.10;91.20;;;;;;5016995;28;20203;-78
2024/01/10 04:20:08;;;;;;;9.70;6.53;;;-4.30;91.20;;;;;;5017555;28;20237;-78
2024/01/10 04:22:35;;;;;;;12.60;6.97;;;-4.30;92.00;;;;;;5017868;28;20222;-77
2024/01/10 04:25:05;;;;;;;9.17;6.07;;;-4.30;92.20;;;;;;5033118;28;20210;-77
2024/01/10 04:27:33;;;;;;;8.90;6.17;;;-4.20;92.40;;;;;;5032305;28;20194;-77
2024/01/10 04:30:01;;;;;;;13.23;6.87;;;-4.10;92.50;;;;;;5032324;28;20580;-78
2024/01/10 04:32:28;;;;;;;10.27;6.83;;;-4.10;92.00;;;;;;5017927;28;20553;-78
2024/01/10 04:34:55;;;;;;;9.77;6.53;;;-4.20;91.50;;;;;;5036160;28;20186;-78
2024/01/10 04:37:23;;;;;;;8.73;6.70;;;-4.00;91.60;;;;;;5018090;28;20202;-77
2024/01/10 04:39:50;;;;;;;11.37;7.47;;;-4.10;91.40;;;;;;5017022;28;20245;-78
2024/01/10 04:42:18;;;;;;;9.40;6.83;;;-4.10;92.00;;;;;;5017700;28;20214;-78
2024/01/10 04:44:46;;;;;;;10.70;6.73;;;-4.10;91.40;;;;;;5032105;28;20195;-77
2024/01/10 04:47:14;;;;;;;10.87;6.73;;;-4.20;91.20;;;;;;5009727;28;20207;-78
2024/01/10 04:49:41;;;;;;;10.57;6.87;;;-4.20;91.50;;;;;;5007397;28;20223;-77
2024/01/10 04:52:08;;;;;;;9.77;6.60;;;-4.20;91.50;;;;;;5017771;28;20191;-78
2024/01/10 04:54:36;;;;;;;11.17;6.83;;;-4.20;91.80;;;;;;5018026;28;20207;-78
2024/01/10 04:57:03;;;;;;;11.23;6.67;;;-4.30;91.30;;;;;;5017490;28;20210;-78
2024/01/10 04:59:31;;;;;;;12.20;6.37;;;-4.20;91.60;;;;;;5017500;28;20223;-77
2024/01/10 05:02:27;;;;;;;9.90;6.43;;;-4.20;91.30;;;;;;5012666;28;20215;-78
2024/01/10 05:04:56;;;;;;;8.10;6.43;;;-4.20;91.50;;;;;;5027735;28;20226;-78
2024/01/10 05:07:23;;;;;;;10.60;6.53;;;-4.30;91.70;;;;;;5016875;28;20210;-77
2024/01/10 05:09:50;;;;;;;11.17;7.30;;;-4.30;91.70;;;;;;5017350;28;20230;-77
2024/01/10 05:12:18;;;;;;;10.47;6.40;;;-4.30;91.50;;;;;;5035308;28;20195;-77
2024/01/10 05:14:45;;;;;;;11.77;6.27;;;-4.20;91.30;;;;;;5007338;28;20202;-77
2024/01/10 05:17:13;;;;;;;10.13;6.87;;;-4.10;91.20;;;;;;5014653;28;20199;-78
2024/01/10 05:19:40;;;;;;;11.57;6.87;;;-4.10;91.10;;;;;;5017060;28;20239;-77
2024/01/10 05:22:09;;;;;;;9.40;6.60;;;-4.10;90.90;;;;;;5017563;28;20582;-78
2024/01/10 05:24:37;;;;;;;12.30;7.23;;;-4.00;90.80;;;;;;5017503;28;20201;-78
2024/01/10 05:27:05;;;;;;;10.90;6.70;;;-3.90;90.80;;;;;;5016431;28;20222;-77
2024/01/10 05:29:32;;;;;;;10.67;6.83;;;-4.00;90.80;;;;;;5008591;28;20222;-78
2024/01/10 05:31:59;;;;;;;10.07;7.10;;;-4.00;90.70;;;;;;5032942;28;20199;-77
2024/01/10 05:34:27;;;;;;;13.17;7.27;;;-4.00;90.70;;;;;;5033438;28;20214;-78
2024/01/10 05:36:54;;;;;;;10.90;7.53;;;-3.90;91.00;;;;;;5016220;28;20207;-77
2024/01/10 05:39:23;;;;;;;9.57;7.40;;;-3.90;90.70;;;;;;5031949;28;20226;-78
2024/01/10 05:41:51;;;;;;;12.73;7.03;;;-4.00;90.80;;;;;;5020542;28;20199;-78
2024/01/10 05:44:18;;;;;;;10.90;7.77;;;-3.90;90.70;;;;;;5035042;28;20238;-78
2024/01/10 05:46:45;;;;;;;11.23;7.20;;;-3.80;90.90;;;;;;5018738;28;20203;-78
2024/01/10 05:49:13;;;;;;;11.17;7.00;;;-3.80;90.50;;;;;;5037373;28;20222;-78
2024/01/10 05:51:40;;;;;;;11.57;7.07;;;-4.00;90.30;;;;;;5020021;28;20214;-78
2024/01/10 05:54:08;;;;;;;12.03;7.43;;;-4.20;90.70;;;;;;5016441;28;20208;-78
2024/01/10 05:56:36;;;;;;;11.53;6.93;;;-4.20;91.10;;;;;;5016805;28;20657;-78
2024/01/10 05:59:05;;;;;;;11.43;6.90;;;-4.20;91.20;;;;;;5029539;28;20214;-78
2024/01/10 06:01:32;;;;;;;11.13;6.63;;;-4.40;91.00;;;;;;5015885;28;20206;-78
2024/01/10 06:04:01;;;;;;;13.27;7.50;;;-4.30;91.50;;;;;;5011239;28;20580;-78
2024/01/10 06:06:28;;;;;;;11.93;6.87;;;-4.20;91.40;;;;;;5018943;28;20210;-78
2024/01/10 06:08:55;;;;;;;13.80;7.87;;;-4.10;91.20;;;;;;5018863;28;20241;-78
2024/01/10 06:11:23;;;;;;;10.70;7.07;;;-4.10;90.70;;;;;;5015518;28;20223;-77
2024/01/10 06:13:52;;;;;;;13.60;7.53;;;-4.30;91.00;;;;;;5018530;28;20198;-78
2024/01/10 06:16:19;;;;;;;13.13;7.13;;;-4.10;91.20;;;;;;5018934;28;20202;-78
2024/01/10 06:18:47;;;;;;;16.57;8.60;;;-4.10;91.00;;;;;;5016607;28;20219;-78
2024/01/10 06:21:14;;;;;;;13.97;8.93;;;-4.00;91.30;;;;;;5019051;28;20595;-78
2024/01/10 06:23:49;;;;;;;13.77;8.50;;;-3.80;91.30;;;;;;5095029;28;20560;-78
2024/01/10 06:26:17;;;;;;;12.80;7.73;;;-3.90;90.80;;;;;;5072694;28;20190;-78
2024/01/10 06:28:44;;;;;;;13.33;7.93;;;-3.90;90.80;;;;;;5073428;28;20220;-79
2024/01/10 06:31:12;;;;;;;14.40;8.27;;;-3.90;90.80;;;;;;5071934;28;20197;-78
2024/01/10 06:33:39;;;;;;;11.50;8.17;;;-4.10;90.70;;;;;;5060469;28;20199;-79
2024/01/10 06:36:07;;;;;;;9.97;6.83;;;-4.00;90.70;;;;;;5074120;28;20201;-79
2024/01/10 06:38:34;;;;;;;12.77;7.73;;;-3.70;91.00;;;;;;5073901;28;20213;-79
2024/01/10 06:41:08;;;;;;;12.77;8.13;;;-3.80;90.70;;;;;;5073181;28;20192;-79
2024/01/10 06:43:37;;;;;;;13.53;8.07;;;-4.00;90.50;;;;;;5070784;28;20202;-77
2024/01/10 06:46:05;;;;;;;13.47;8.27;;;-2.80;98.30;;;;;;5061504;28;20189;-77
2024/01/10 06:48:34;;;;;;;14.20;8.50;;;-3.20;93.60;;;;;;5063851;28;20216;-79
2024/01/10 06:51:03;;;;;;;13.47;8.03;;;-2.20;96.80;;;;;;5067110;28;20202;-79
2024/01/10 06:53:39;;;;;;;13.50;8.03;;;-2.90;92.00;;;;;;5064588;28;20201;-78
2024/01/10 06:56:11;;;;;;;14.43;8.07;;;-3.10;91.10;;;;;;5075029;28;20212;-79
2024/01/10 06:58:39;;;;;;;14.30;8.17;;;-3.60;91.30;;;;;;5072014;28;20217;-79
2024/01/10 07:01:13;;;;;;;12.13;7.83;;;-3.50;91.90;;;;;;5080696;28;20193;-79
2024/01/10 07:03:40;;;;;;;10.83;7.60;;;-3.40;91.80;;;;;;5069522;28;20216;-80
2024/01/10 07:06:08;;;;;;;12.87;8.53;;;-3.40;90.90;;;;;;5085818;28;20194;-76
2024/01/10 07:08:35;;;;;;;12.27;8.00;;;-3.60;91.20;;;;;;5087447;28;20239;-76
2024/01/10 07:11:03;;;;;;;15.53;8.00;;;-3.50;90.80;;;;;;5087378;28;20181;-79
2024/01/10 07:13:32;;;;;;;11.97;8.27;;;-3.60;91.10;;;;;;5087468;28;20190;-79
2024/01/10 07:16:01;;;;;;;14.93;8.60;;;-3.50;90.80;;;;;;5072239;28;20204;-80
2024/01/10 07:18:29;;;;;;;12.90;8.30;;;-3.60;90.80;;;;;;5071891;28;20221;-79
2024/01/10 07:20:56;;;;;;;12.67;8.23;;;-3.60;91.60;;;;;;5072835;28;20193;-79
2024/01/10 07:23:24;;;;;;;14.30;9.00;;;-3.50;91.40;;;;;;5072925;28;20213;-79
2024/01/10 07:25:57;;;;;;;14.27;8.87;;;-3.40;90.70;;;;;;5071571;28;20197;-80
2024/01/10 07:28:25;;;;;;;11.33;8.10;;;-3.70;90.50;;;;;;5070217;28;20225;-80
2024/01/10 07:30:54;;;;;;;14.53;8.63;;;-3.70;90.60;;;;;;5070444;28;20209;-80
2024/01/10 07:33:22;;;;;;;14.47;8.43;;;-3.50;90.90;;;;;;5068136;28;20202;-81
2024/01/10 07:35:49;;;;;;;12.57;8.43;;;-3.60;90.20;;;;;;5057990;28;20285;-81
2024/01/10 07:38:17;;;;;;;14.27;8.57;;;-3.40;91.00;;;;;;5057945;28;20687;-80
2024/01/10 07:40:45;;;;;;;16.60;8.50;;;-3.50;90.30;;;;;;5057883;28;20190;-82
2024/01/10 07:43:18;;;;;;;15.03;8.50;;;-3.80;90.90;;;;;;5056027;28;20210;-79
2024/01/10 07:45:45;;;;;;;16.00;8.30;;;-3.70;90.70;;;;;;5053877;28;20666;-81
2024/01/10 07:48:15;;;;;;;16.80;9.13;;;-3.50;90.90;;;;;;5057046;28;20680;-81
2024/01/10 07:50:42;;;;;;;15.07;8.80;;;-3.70;90.50;;;;;;5059256;28;20543;-81
2024/01/10 07:53:10;;;;;;;11.67;8.37;;;-3.70;90.70;;;;;;5057926;28;20201;-81
2024/01/10 07:55:37;;;;;;;15.90;8.87;;;-3.90;90.70;;;;;;5056766;28;20195;-81
2024/01/10 07:58:05;;;;;;;13.37;7.90;;;-3.90;90.80;;;;;;5060272;28;20213;-81
2024/01/10 08:00:33;;;;;;;14.10;8.47;;;-3.70;91.40;;;;;;5058310;28;20203;-81
2024/01/10 08:03:01;;;;;;;14.10;8.80;;;-3.50;91.70;;;;;;5056476;28;20218;-81
2024/01/10 08:05:32;;;;;;;15.50;8.73;;;-3.50;90.90;;;;;;5055910;28;20213;-80
2024/01/10 08:07:59;;;;;;;13.33;8.83;;;-3.50;91.00;;;;;;5058170;28;20191;-81
2024/01/10 08:10:28;;;;;;;14.67;8.93;;;-3.80;90.70;;;;;;5064821;28;20197;-80
2024/01/10 08:12:56;;;;;;;16.97;9.03;;;-3.70;90.90;;;;;;5059156;28;20202;-81
2024/01/10 08:15:24;;;;;;;15.77;8.93;;;-3.70;90.70;;;;;;5058424;28;20207;-81
2024/01/10 08:17:52;;;;;;;16.83;9.10;;;-3.70;91.10;;;;;;5057266;28;20201;-80
2024/01/10 08:20:20;;;;;;;15.93;9.17;;;-3.80;91.30;;;;;;5058331;28;20208;-81
2024/01/10 08:22:49;;;;;;;17.47;9.70;;;-3.50;91.30;;;;;;5052378;28;20235;-81
2024/01/10 08:25:18;;;;;;;15.53;9.07;;;-3.40;91.00;;;;;;5051727;28;20217;-81
2024/01/10 08:27:46;;;;;;;17.07;9.37;;;-3.30;90.90;;;;;;5059249;28;20197;-83
2024/01/10 08:30:22;;;;;;;14.40;9.53;;;-3.10;90.80;;;;;;5053354;28;20275;-81
2024/01/10 08:32:49;;;;;;;14.07;9.23;;;-3.30;90.70;;;;;;5057489;28;20208;-82
2024/01/10 08:35:17;;;;;;;15.13;9.17;;;-3.20;90.20;;;;;;5064549;28;20214;-82
2024/01/10 08:37:44;;;;;;;19.23;10.60;;;-3.10;90.40;;;;;;5070990;28;20202;-80
2024/01/10 08:40:15;;;;;;;20.80;10.93;;;-3.10;90.50;;;;;;5066140;28;20677;-80
2024/01/10 08:42:42;;;;;;;16.47;10.63;;;-3.10;90.40;;;;;;5071608;28;20190;-80
2024/01/10 08:45:11;;;;;;;18.20;10.43;;;-3.10;90.40;;;;;;5068277;28;20212;-81
2024/01/10 08:47:38;;;;;;;18.70;10.57;;;-2.90;90.30;;;;;;5064130;28;20209;-81
2024/01/10 08:50:08;;;;;;;18.87;10.83;;;-2.80;90.20;;;;;;5062521;28;20218;-81
2024/01/10 08:52:37;;;;;;;15.67;10.50;;;-2.90;89.80;;;;;;5057026;28;20206;-80
2024/01/10 08:55:06;;;;;;;18.83;10.70;;;-3.10;89.40;;;;;;5058179;28;20202;-79
2024/01/10 08:57:39;;;;;;;18.17;10.87;;;-2.90;89.90;;;;;;5057530;28;20214;-81
2024/01/10 09:00:11;;;;;;;18.47;11.03;;;-2.80;89.50;;;;;;5057270;28;20214;-81
2024/01/10 09:02:39;;;;;;;17.63;11.23;;;-2.80;89.70;;;;;;5058973;28;20210;-82
2024/01/10 09:05:08;;;;;;;18.27;11.10;;;-2.80;89.50;;;;;;5061699;28;20205;-80
2024/01/10 09:07:35;;;;;;;16.13;11.00;;;-3.00;89.00;;;;;;5064890;28;20209;-80
2024/01/10 09:10:05;;;;;;;18.20;10.77;;;-2.70;90.10;;;;;;5064195;28;20616;-80
2024/01/10 09:12:32;;;;;;;18.43;11.17;;;-2.60;90.10;;;;;;5064190;28;20208;-78
2024/01/10 09:15:02;;;;;;;25.07;12.60;;;-2.50;88.80;;;;;;5063274;28;20198;-81
2024/01/10 09:17:30;;;;;;;19.37;11.67;;;-2.50;88.10;;;;;;5063174;28;20198;-80
2024/01/10 09:19:57;;;;;;;16.10;11.23;;;-2.40;88.00;;;;;;5061734;28;20232;-80
2024/01/10 09:22:24;;;;;;;17.63;10.97;;;-2.30;87.90;;;;;;5062702;28;20561;-81
2024/01/10 09:24:52;;;;;;;22.47;11.57;;;-2.30;86.70;;;;;;5064163;28;20229;-80
2024/01/10 09:27:19;;;;;;;19.97;12.00;;;-2.10;87.80;;;;;;5064063;28;20198;-79
2024/01/10 09:29:47;;;;;;;20.17;11.57;;;-2.10;87.20;;;;;;5063133;28;20233;-79
2024/01/10 09:32:15;;;;;;;18.07;11.07;;;-2.00;85.70;;;;;;5063339;28;20203;-78
2024/01/10 09:34:43;;;;;;;19.23;10.97;;;-2.30;84.80;;;;;;5075966;28;20225;-78
2024/01/10 09:37:10;;;;;;;23.07;12.07;;;-2.10;86.50;;;;;;5062588;28;20194;-79
2024/01/10 09:39:38;;;;;;;17.80;11.17;;;-1.90;86.40;;;;;;5061859;28;20233;-80
2024/01/10 09:42:06;;;;;;;22.03;12.70;;;-2.00;86.40;;;;;;5054339;28;20199;-80
2024/01/10 09:44:34;;;;;;;20.37;12.33;;;-1.90;86.50;;;;;;5061909;28;20219;-79
2024/01/10 09:47:02;;;;;;;21.33;12.50;;;-1.80;85.10;;;;;;5064559;28;20207;-80
2024/01/10 09:49:30;;;;;;;18.10;11.83;;;-1.70;84.80;;;;;;5067600;28;20224;-79
2024/01/10 09:52:00;;;;;;;16.27;10.97;;;-1.60;86.00;;;;;;5067229;28;20203;-79
2024/01/10 09:54:31;;;;;;;18.23;11.73;;;-1.40;85.60;;;;;;5061638;28;20187;-80
2024/01/10 09:56:58;;;;;;;20.43;12.20;;;-1.30;84.20;;;;;;5060849;28;20205;-79
2024/01/10 09:59:26;;;;;;;21.67;12.70;;;-1.30;84.20;;;;;;5054725;28;20228;-80
2024/01/10 10:01:53;;;;;;;18.83;12.00;;;-1.20;83.70;;;;;;5053614;28;20208;-80
2024/01/10 10:04:23;;;;;;;18.27;12.20;;;-1.20;82.80;;;;;;5043318;28;20227;-80
2024/01/10 10:07:01;;;;;;;19.53;12.23;;;-1.00;84.10;;;;;;5050736;28;20201;-81
2024/01/10 10:09:30;;;;;;;18.93;12.83;;;-1.00;83.60;;;;;;5057056;28;20210;-80
2024/01/10 10:11:58;;;;;;;22.90;13.13;;;-0.90;82.30;;;;;;5051524;28;20208;-80
2024/01/10 10:14:29;;;;;;;24.13;12.97;;;-0.80;82.50;;;;;;5049760;28;20214;-81
2024/01/10 10:16:57;;;;;;;23.10;13.97;;;-0.80;81.70;;;;;;5050268;28;20687;-80
2024/01/10 10:19:25;;;;;;;22.93;13.67;;;-0.70;82.90;;;;;;5049891;28;20235;-80
2024/01/10 10:21:52;;;;;;;22.30;13.17;;;-0.60;83.00;;;;;;5052778;28;20219;-80
2024/01/10 10:24:22;;;;;;;22.80;13.33;;;-0.60;82.50;;;;;;5049206;28;20206;-80
2024/01/10 10:26:49;;;;;;;20.63;13.03;;;-0.70;81.20;;;;;;5053007;28;20541;-81
2024/01/10 10:29:29;;;;;;;25.10;13.63;;;-0.50;81.90;;;;;;5055437;28;20228;-80
2024/01/10 10:31:57;;;;;;;21.93;13.43;;;-0.30;81.50;;;;;;5053617;28;20200;-80
2024/01/10 10:34:24;;;;;;;18.97;13.43;;;-0.30;78.90;;;;;;5051949;28;20201;-80
2024/01/10 10:36:52;;;;;;;21.97;13.63;;;-0.20;80.30;;;;;;5049440;28;20206;-80
2024/01/10 10:39:21;;;;;;;19.97;13.27;;;0.20;79.70;;;;;;5052608;28;20226;-79
2024/01/10 10:41:50;;;;;;;19.70;12.87;;;0.40;79.10;;;;;;5049745;28;20206;-81
2024/01/10 10:44:20;;;;;;;18.67;12.73;;;0.40;79.00;;;;;;5051052;28;20220;-78
2024/01/10 10:46:52;;;;;;;19.53;12.90;;;0.90;77.20;;;;;;5051637;28;20292;-80
2024/01/10 10:49:27;;;;;;;21.93;12.93;;;0.20;75.40;;;;;;5051969;28;20722;-80
2024/01/10 10:51:58;;;;;;;20.47;13.17;;;1.20;77.40;;;;;;5050394;28;20202;-81
2024/01/10 10:54:30;;;;;;;23.90;14.70;;;0.40;71.40;;;;;;5054318;28;20203;-80
2024/01/10 10:57:00;;;;;;;22.97;14.03;;;1.00;74.10;;;;;;5050770;28;20202;-81
2024/01/10 10:59:30;;;;;;;25.33;15.10;;;1.50;74.30;;;;;;5046943;28;20223;-80
2024/01/10 11:01:58;;;;;;;19.90;13.00;;;1.80;72.10;;;;;;5054743;28;20732;-81
2024/01/10 11:04:26;;;;;;;21.07;13.27;;;2.50;71.60;;;;;;5053009;28;20229;-80
2024/01/10 11:06:53;;;;;;;21.10;13.27;;;3.10;69.30;;;;;;5052766;28;20215;-81
2024/01/10 11:09:23;;;;;;;20.40;12.93;;;3.60;64.70;;;;;;5049130;28;20560;-81
2024/01/10 11:12:12;;;;;;;21.03;13.37;;;3.20;64.70;;;;;;5053871;28;20186;-80
2024/01/10 11:14:52;;;;;;;20.03;13.83;;;3.70;60.90;;;;;;5057537;28;20190;-81
2024/01/10 11:17:40;;;;;;;21.73;14.63;;;3.90;61.00;;;;;;5056721;28;20194;-82
2024/01/10 11:20:19;;;;;;;22.03;13.67;;;4.40;60.30;;;;;;5056411;28;20219;-81
2024/01/10 11:23:04;;;;;;;20.03;13.37;;;4.70;56.90;;;;;;5047510;28;20223;-81
2024/01/10 11:25:32;;;;;;;21.03;13.10;;;4.80;55.20;;;;;;5055356;28;20213;-81
2024/01/10 11:28:05;;;;;;;20.17;13.43;;;4.40;54.30;;;;;;5055574;28;20212;-81
2024/01/10 11:30:38;;;;;;;22.10;13.17;;;5.40;53.90;;;;;;5049173;28;20663;-81
2024/01/10 11:33:23;;;;;;;22.00;13.70;;;4.10;51.20;;;;;;5061720;28;20206;-81
2024/01/10 11:36:31;;;;;;;21.50;14.00;;;4.50;51.70;;;;;;5054217;28;20201;-77
2024/01/10 11:39:02;;;;;;;20.57;14.23;;;6.50;64.90;;;;;;5047748;28;20222;-77
2024/01/10 11:41:31;;;;;;;21.90;13.83;;;7.70;56.10;;;;;;5055802;28;20214;-80
2024/01/10 11:44:31;;;;;;;23.53;14.77;;;7.50;49.30;;;;;;5056800;28;20210;-81
2024/01/10 11:46:59;;;;;;;21.93;14.73;;;7.00;46.30;;;;;;5044651;28;20699;-80
2024/01/10 11:49:27;;;;;;;19.63;13.53;;;6.10;45.40;;;;;;5050025;28;20218;-81
2024/01/10 11:51:56;;;;;;;20.67;14.17;;;5.60;45.70;;;;;;5051050;28;20211;-81
2024/01/10 11:54:46;;;;;;;20.97;13.97;;;6.50;46.70;;;;;;5052009;28;20210;-80
2024/01/10 11:57:20;;;;;;;20.37;13.83;;;7.40;44.90;;;;;;5041915;28;20206;-80
2024/01/10 11:59:53;;;;;;;22.67;14.73;;;7.30;43.00;;;;;;5057779;28;20225;-79
2024/01/10 12:02:23;;;;;;;20.90;14.43;;;7.90;43.10;;;;;;5055921;28;20198;-81
2024/01/10 12:04:51;;;;;;;21.50;14.63;;;8.10;41.90;;;;;;5055775;28;20213;-82
2024/01/10 12:07:19;;;;;;;20.87;14.57;;;7.10;41.70;;;;;;5052153;28;20202;-81
2024/01/10 12:09:47;;;;;;;21.53;13.70;;;7.20;42.40;;;;;;5072210;28;20241;-81
2024/01/10 12:12:15;;;;;;;23.37;14.77;;;7.90;42.00;;;;;;5054512;28;20198;-81
2024/01/10 12:14:44;;;;;;;20.40;14.00;;;7.70;40.10;;;;;;5054583;28;20199;-81
2024/01/10 12:17:13;;;;;;;18.27;13.87;;;8.00;40.70;;;;;;5056012;28;20187;-81
2024/01/10 12:19:41;;;;;;;21.80;14.27;;;8.60;40.20;;;;;;5053574;28;20234;-81
2024/01/10 12:22:09;;;;;;;23.30;14.33;;;8.40;39.00;;;;;;5055171;28;20218;-80
2024/01/10 12:24:44;;;;;;;22.07;14.03;;;8.40;38.50;;;;;;5054152;28;20214;-80
2024/01/10 12:27:12;;;;;;;20.27;14.27;;;8.90;39.20;;;;;;5049617;28;20198;-80
2024/01/10 12:29:39;;;;;;;19.97;14.37;;;8.70;37.20;;;;;;5058787;28;20718;-79
2024/01/10 12:32:08;;;;;;;20.60;14.27;;;8.00;37.70;;;;;;5057366;28;20191;-79
2024/01/10 12:34:40;;;;;;;21.70;14.57;;;8.20;37.20;;;;;;5056856;28;20203;-80
2024/01/10 12:37:08;;;;;;;20.03;14.17;;;9.00;37.70;;;;;;5052924;28;20198;-79
2024/01/10 12:39:36;;;;;;;19.77;13.90;;;9.10;36.40;;;;;;5053813;28;20214;-79
2024/01/10 12:42:03;;;;;;;19.70;13.50;;;8.20;36.10;;;;;;5053934;28;20202;-79
2024/01/10 12:44:31;;;;;;;21.43;14.70;;;8.50;36.70;;;;;;5056896;28;20210;-79
2024/01/10 12:46:59;;;;;;;21.83;13.17;;;8.90;35.80;;;;;;5051226;28;20205;-79